Time;durP1;ratioP1;P1;durP2;ratioP2;P2;SDS_P1;SDS_P2;PMS_P1;PMS_P2;Temp;Humidity;BMP_temperature;BMP_pressure;BME280_temperature;BME280_humidity;BME280_pressure;Samples;Min_cycle;Max_cycle;Signal;HPM_P1;HPM_P2
2022/07/30 00:00:48;;;;;;;22.03;15.53;;;;;;;;;;736162;188;819279;-62
2022/07/30 00:03:14;;;;;;;20.90;15.17;;;;;;;;;;728746;188;918744;-61
2022/07/30 00:05:40;;;;;;;17.77;15.87;;;;;;;;;;742761;189;919335;-61
2022/07/30 00:08:06;;;;;;;17.50;15.57;;;;;;;;;;731715;188;917253;-64
2022/07/30 00:10:32;;;;;;;24.00;19.07;;;;;;;;;;738134;188;817129;-63
2022/07/30 00:12:58;;;;;;;20.00;17.20;;;;;;;;;;743285;188;919419;-61
2022/07/30 00:15:23;;;;;;;20.00;17.50;;;;;;;;;;736867;189;921136;-62
2022/07/30 00:17:49;;;;;;;21.60;15.63;;;;;;;;;;735303;190;872309;-60
2022/07/30 00:20:15;;;;;;;18.93;15.97;;;;;;;;;;736184;188;916612;-61
2022/07/30 00:22:41;;;;;;;19.87;17.60;;;;;;;;;;731738;186;919003;-61
2022/07/30 00:25:07;;;;;;;22.33;17.17;;;;;;;;;;733206;189;918670;-63
2022/07/30 00:27:34;;;;;;;25.30;18.17;;;;;;;;;;727339;188;920041;-63
2022/07/30 00:29:59;;;;;;;21.65;17.60;;;;;;;;;;731182;189;914885;-61
2022/07/30 00:32:25;;;;;;;24.53;18.47;;;;;;;;;;722222;192;917964;-60
2022/07/30 00:34:51;;;;;;;29.00;19.70;;;;;;;;;;720637;194;918258;-63
2022/07/30 00:37:16;;;;;;;24.83;19.55;;;;;;;;;;726165;191;918829;-60
2022/07/30 00:39:42;;;;;;;23.27;18.17;;;;;;;;;;723144;191;919401;-63
2022/07/30 00:42:08;;;;;;;23.30;19.27;;;;;;;;;;732525;189;922413;-61
2022/07/30 00:44:34;;;;;;;23.60;17.90;;;;;;;;;;736404;190;918790;-60
2022/07/30 00:47:00;;;;;;;22.87;18.50;;;;;;;;;;732691;188;917797;-61
2022/07/30 00:49:26;;;;;;;29.67;20.37;;;;;;;;;;733065;188;920136;-61
2022/07/30 00:51:52;;;;;;;21.27;18.62;;;;;;;;;;730852;188;919643;-60
2022/07/30 00:54:18;;;;;;;22.10;19.13;;;;;;;;;;735976;189;816541;-60
2022/07/30 00:56:43;;;;;;;25.37;19.20;;;;;;;;;;733430;188;878546;-63
2022/07/30 00:59:09;;;;;;;20.27;17.63;;;;;;;;;;736546;189;919274;-61
2022/07/30 01:01:35;;;;;;;27.07;19.83;;;;;;;;;;735897;188;816985;-62
2022/07/30 01:04:01;;;;;;;24.60;17.77;;;;;;;;;;726143;190;917904;-62
2022/07/30 01:06:27;;;;;;;21.83;16.53;;;;;;;;;;731127;190;919641;-63
2022/07/30 01:08:53;;;;;;;30.63;19.80;;;;;;;;;;733037;188;918484;-61
2022/07/30 01:11:19;;;;;;;20.73;18.27;;;;;;;;;;732168;189;944788;-60
2022/07/30 01:13:44;;;;;;;22.13;18.77;;;;;;;;;;732754;188;915790;-60
2022/07/30 01:16:10;;;;;;;27.00;18.12;;;;;;;;;;736307;188;918745;-62
2022/07/30 01:21:08;;;;;;;26.90;20.07;;;;;;;;;;733340;188;919228;-61
2022/07/30 01:23:34;;;;;;;25.00;19.67;;;;;;;;;;733439;190;918721;-61
2022/07/30 01:25:59;;;;;;;23.03;18.07;;;;;;;;;;742438;188;918033;-61
2022/07/30 01:28:25;;;;;;;33.10;21.13;;;;;;;;;;742672;188;918761;-63
2022/07/30 01:30:51;;;;;;;31.40;20.33;;;;;;;;;;730027;188;918744;-61
2022/07/30 01:33:17;;;;;;;25.73;19.13;;;;;;;;;;740577;189;919243;-63
2022/07/30 01:35:43;;;;;;;24.10;21.50;;;;;;;;;;742256;187;918701;-63
2022/07/30 01:38:10;;;;;;;25.13;20.70;;;;;;;;;;738096;188;921914;-61
2022/07/30 01:40:35;;;;;;;25.63;18.63;;;;;;;;;;736703;189;921954;-60
2022/07/30 01:43:00;;;;;;;32.57;19.47;;;;;;;;;;747805;188;872494;-61
2022/07/30 01:45:26;;;;;;;26.17;18.50;;;;;;;;;;736261;189;917822;-60
2022/07/30 01:47:52;;;;;;;22.43;19.20;;;;;;;;;;735080;189;920048;-62
2022/07/30 01:50:18;;;;;;;23.30;20.33;;;;;;;;;;741775;189;920589;-64
2022/07/30 01:52:44;;;;;;;26.65;19.77;;;;;;;;;;734181;188;917979;-63
2022/07/30 01:55:10;;;;;;;27.33;21.47;;;;;;;;;;726970;189;919271;-66
2022/07/30 01:57:35;;;;;;;25.93;20.73;;;;;;;;;;739538;190;918452;-62
2022/07/30 02:00:01;;;;;;;23.83;20.13;;;;;;;;;;735032;189;919053;-62
2022/07/30 02:02:27;;;;;;;24.77;20.70;;;;;;;;;;732310;188;817631;-60
2022/07/30 02:04:53;;;;;;;28.20;22.40;;;;;;;;;;730507;188;917480;-61
2022/07/30 02:07:19;;;;;;;39.13;21.10;;;;;;;;;;733884;188;916955;-61
2022/07/30 02:09:54;;;;;;;23.23;19.63;;;;;;;;;;731159;189;917295;-60
2022/07/30 02:14:53;;;;;;;28.93;20.77;;;;;;;;;;731048;189;918788;-60
2022/07/30 02:17:18;;;;;;;22.70;19.93;;;;;;;;;;736651;191;917873;-60
2022/07/30 02:19:44;;;;;;;26.60;20.73;;;;;;;;;;730357;189;917963;-61
2022/07/30 02:22:10;;;;;;;24.40;20.83;;;;;;;;;;727422;188;919405;-62
2022/07/30 02:24:36;;;;;;;22.55;19.90;;;;;;;;;;739356;190;919133;-60
2022/07/30 02:27:03;;;;;;;29.20;20.37;;;;;;;;;;735618;189;918874;-62
2022/07/30 02:29:29;;;;;;;27.37;20.83;;;;;;;;;;734101;189;919877;-60
2022/07/30 02:31:55;;;;;;;25.37;19.93;;;;;;;;;;740932;189;920981;-62
2022/07/30 02:34:20;;;;;;;28.47;22.00;;;;;;;;;;736991;187;918581;-61
2022/07/30 02:36:46;;;;;;;23.87;19.97;;;;;;;;;;736174;188;918603;-60
2022/07/30 02:39:13;;;;;;;25.80;21.27;;;;;;;;;;738105;188;937653;-63
2022/07/30 02:41:38;;;;;;;32.93;22.40;;;;;;;;;;741569;188;816582;-61
2022/07/30 02:44:04;;;;;;;28.97;21.87;;;;;;;;;;732314;188;919873;-62
2022/07/30 02:46:31;;;;;;;30.10;22.73;;;;;;;;;;733549;188;918895;-62
2022/07/30 02:48:56;;;;;;;25.03;21.40;;;;;;;;;;747771;188;742211;-61
2022/07/30 02:51:21;;;;;;;30.57;21.50;;;;;;;;;;735053;189;919126;-62
2022/07/30 02:53:47;;;;;;;29.43;21.10;;;;;;;;;;739439;188;918116;-60
2022/07/30 02:56:14;;;;;;;26.60;21.80;;;;;;;;;;740741;189;887429;-62
2022/07/30 02:58:39;;;;;;;26.93;20.47;;;;;;;;;;729080;188;919329;-62
2022/07/30 03:01:05;;;;;;;28.57;22.30;;;;;;;;;;731440;187;932833;-61
2022/07/30 03:03:31;;;;;;;26.43;21.50;;;;;;;;;;729798;188;921037;-60
2022/07/30 03:05:57;;;;;;;29.30;22.47;;;;;;;;;;740462;190;918876;-60
2022/07/30 03:08:22;;;;;;;28.58;21.80;;;;;;;;;;737985;189;916064;-61
2022/07/30 03:10:48;;;;;;;30.40;21.20;;;;;;;;;;731130;188;918073;-60
2022/07/30 03:13:14;;;;;;;24.97;19.87;;;;;;;;;;735719;190;857295;-59
2022/07/30 03:15:40;;;;;;;24.80;20.90;;;;;;;;;;733354;188;921202;-60
2022/07/30 03:18:06;;;;;;;24.60;20.30;;;;;;;;;;734825;190;919165;-62
2022/07/30 03:20:32;;;;;;;25.33;20.03;;;;;;;;;;737744;189;917908;-60
2022/07/30 03:22:58;;;;;;;30.17;21.13;;;;;;;;;;733543;187;919114;-60
2022/07/30 03:25:23;;;;;;;25.30;19.67;;;;;;;;;;727183;188;916593;-61
2022/07/30 03:27:49;;;;;;;25.90;21.70;;;;;;;;;;731780;188;917978;-62
2022/07/30 03:30:15;;;;;;;25.20;20.53;;;;;;;;;;736262;190;900356;-61
2022/07/30 03:32:41;;;;;;;27.40;21.30;;;;;;;;;;732794;188;918667;-60
2022/07/30 03:35:07;;;;;;;24.87;20.50;;;;;;;;;;732177;188;919247;-61
2022/07/30 03:37:33;;;;;;;28.43;22.20;;;;;;;;;;738495;188;914494;-60
2022/07/30 03:39:59;;;;;;;25.77;23.00;;;;;;;;;;734446;189;919143;-62
2022/07/30 03:42:25;;;;;;;27.30;24.20;;;;;;;;;;733418;188;926431;-62
2022/07/30 03:44:51;;;;;;;31.92;24.15;;;;;;;;;;737167;188;914392;-60
2022/07/30 03:47:16;;;;;;;31.37;24.30;;;;;;;;;;733431;188;913606;-63
2022/07/30 03:49:42;;;;;;;28.10;23.80;;;;;;;;;;732575;188;917127;-60
2022/07/30 03:52:08;;;;;;;28.00;25.07;;;;;;;;;;737614;187;962329;-60
2022/07/30 03:54:34;;;;;;;30.13;22.93;;;;;;;;;;722306;189;920057;-61
2022/07/30 03:57:00;;;;;;;28.35;24.20;;;;;;;;;;734762;188;916479;-62
2022/07/30 03:59:26;;;;;;;28.47;23.73;;;;;;;;;;732161;188;919460;-64
2022/07/30 04:01:51;;;;;;;33.73;25.00;;;;;;;;;;739628;188;795728;-63
2022/07/30 04:04:17;;;;;;;29.17;25.92;;;;;;;;;;734291;187;918563;-62
2022/07/30 04:06:43;;;;;;;29.63;25.27;;;;;;;;;;733325;188;919966;-63
2022/07/30 04:09:09;;;;;;;34.03;23.83;;;;;;;;;;738227;188;874203;-62
2022/07/30 04:11:35;;;;;;;28.97;24.57;;;;;;;;;;732600;188;919085;-61
2022/07/30 04:14:01;;;;;;;31.10;25.13;;;;;;;;;;732990;188;920841;-61
2022/07/30 04:16:32;;;;;;;27.20;23.20;;;;;;;;;;740114;188;820326;-63
2022/07/30 04:18:58;;;;;;;27.77;22.57;;;;;;;;;;742472;188;624280;-61
2022/07/30 04:21:24;;;;;;;30.43;25.03;;;;;;;;;;738445;188;633762;-60
2022/07/30 04:23:50;;;;;;;28.33;23.83;;;;;;;;;;739813;188;618967;-60
2022/07/30 04:26:16;;;;;;;32.23;25.33;;;;;;;;;;738077;188;813475;-63
2022/07/30 04:28:41;;;;;;;27.30;24.60;;;;;;;;;;739966;188;909779;-61
2022/07/30 04:31:07;;;;;;;27.70;24.27;;;;;;;;;;735871;188;915616;-61
2022/07/30 04:33:33;;;;;;;28.00;24.83;;;;;;;;;;738815;188;919390;-61
2022/07/30 04:35:59;;;;;;;31.07;25.33;;;;;;;;;;732269;189;918477;-61
2022/07/30 04:38:25;;;;;;;33.00;26.80;;;;;;;;;;734489;188;919148;-60
2022/07/30 04:40:51;;;;;;;26.03;22.87;;;;;;;;;;730623;189;918840;-62
2022/07/30 04:43:16;;;;;;;32.17;25.57;;;;;;;;;;737899;188;918931;-60
2022/07/30 04:45:42;;;;;;;33.33;23.55;;;;;;;;;;733896;190;918254;-61
2022/07/30 04:48:08;;;;;;;25.63;22.83;;;;;;;;;;732348;190;917693;-62
2022/07/30 04:50:34;;;;;;;30.13;24.20;;;;;;;;;;739476;189;920617;-60
2022/07/30 04:53:00;;;;;;;33.77;25.30;;;;;;;;;;736041;188;918813;-61
2022/07/30 04:55:26;;;;;;;27.47;23.50;;;;;;;;;;733137;188;926052;-62
2022/07/30 04:57:52;;;;;;;27.43;22.87;;;;;;;;;;737378;188;920049;-61
2022/07/30 05:00:17;;;;;;;29.03;23.50;;;;;;;;;;733568;188;1117244;-61
2022/07/30 05:02:43;;;;;;;30.48;22.27;;;;;;;;;;737422;188;926610;-60
2022/07/30 05:05:10;;;;;;;26.73;22.57;;;;;;;;;;741397;188;920358;-60
2022/07/30 05:07:36;;;;;;;31.63;22.73;;;;;;;;;;744577;188;813488;-63
2022/07/30 05:10:02;;;;;;;25.53;20.60;;;;;;;;;;733627;188;921025;-61
2022/07/30 05:12:31;;;;;;;27.77;23.13;;;;;;;;;;735970;188;918256;-64
2022/07/30 05:14:57;;;;;;;29.63;23.47;;;;;;;;;;739473;189;917690;-61
2022/07/30 05:17:23;;;;;;;29.30;22.77;;;;;;;;;;734961;188;914956;-61
2022/07/30 05:19:49;;;;;;;27.47;24.57;;;;;;;;;;732924;189;896670;-63
2022/07/30 05:22:15;;;;;;;27.90;22.47;;;;;;;;;;740599;189;929251;-61
2022/07/30 05:24:41;;;;;;;26.20;23.40;;;;;;;;;;731299;188;921192;-61
2022/07/30 05:27:07;;;;;;;30.10;24.33;;;;;;;;;;733498;188;919055;-63
2022/07/30 05:29:32;;;;;;;27.60;23.50;;;;;;;;;;731932;188;918668;-61
2022/07/30 05:31:58;;;;;;;32.87;27.30;;;;;;;;;;730769;189;918838;-61
2022/07/30 05:34:24;;;;;;;27.03;23.73;;;;;;;;;;735929;188;919004;-61
2022/07/30 05:36:50;;;;;;;29.37;24.60;;;;;;;;;;734268;187;918244;-63
2022/07/30 05:39:16;;;;;;;36.20;24.20;;;;;;;;;;738223;188;914372;-62
2022/07/30 05:41:42;;;;;;;31.03;22.37;;;;;;;;;;733292;188;919230;-62
2022/07/30 05:44:07;;;;;;;29.90;24.20;;;;;;;;;;736014;188;919572;-63
2022/07/30 05:46:33;;;;;;;29.10;23.30;;;;;;;;;;738823;189;912339;-65
2022/07/30 05:48:59;;;;;;;30.57;22.70;;;;;;;;;;735011;188;918065;-61
2022/07/30 05:51:25;;;;;;;29.60;23.10;;;;;;;;;;731508;188;921301;-61
2022/07/30 05:53:52;;;;;;;29.77;22.10;;;;;;;;;;735987;188;926035;-63
2022/07/30 05:56:18;;;;;;;28.07;21.67;;;;;;;;;;733321;189;920641;-61
2022/07/30 05:58:44;;;;;;;30.00;24.17;;;;;;;;;;735854;188;918546;-60
2022/07/30 06:01:10;;;;;;;35.42;25.23;;;;;;;;;;731047;188;928041;-60
2022/07/30 06:03:36;;;;;;;28.80;24.20;;;;;;;;;;737937;188;756854;-60
2022/07/30 06:06:02;;;;;;;27.83;24.40;;;;;;;;;;735048;188;920154;-62
2022/07/30 06:08:28;;;;;;;28.03;23.93;;;;;;;;;;733670;188;879379;-60
2022/07/30 06:10:53;;;;;;;29.03;24.10;;;;;;;;;;738556;188;919458;-60
2022/07/30 06:13:19;;;;;;;27.93;23.80;;;;;;;;;;734479;188;919593;-63
2022/07/30 06:15:45;;;;;;;32.13;23.03;;;;;;;;;;735721;187;917171;-62
2022/07/30 06:18:11;;;;;;;27.10;24.20;;;;;;;;;;739663;188;918765;-60
2022/07/30 06:20:37;;;;;;;28.07;22.07;;;;;;;;;;735801;188;854907;-60
2022/07/30 06:23:03;;;;;;;25.20;22.17;;;;;;;;;;728313;187;1226580;-60
2022/07/30 06:25:29;;;;;;;30.37;23.63;;;;;;;;;;733035;188;917237;-60
2022/07/30 06:27:54;;;;;;;28.50;24.57;;;;;;;;;;742366;188;918831;-60
2022/07/30 06:30:20;;;;;;;27.50;22.70;;;;;;;;;;734893;188;916096;-61
2022/07/30 06:32:46;;;;;;;27.33;23.00;;;;;;;;;;735719;188;919008;-62
2022/07/30 06:35:12;;;;;;;28.63;23.13;;;;;;;;;;740895;188;617623;-64
2022/07/30 06:37:38;;;;;;;31.77;24.10;;;;;;;;;;736902;188;629109;-62
2022/07/30 06:40:04;;;;;;;28.13;22.93;;;;;;;;;;734866;188;625492;-60
2022/07/30 06:42:31;;;;;;;24.10;21.40;;;;;;;;;;740510;188;617412;-62
2022/07/30 06:44:56;;;;;;;27.70;22.90;;;;;;;;;;737597;188;627326;-61
2022/07/30 06:47:27;;;;;;;27.30;21.73;;;;;;;;;;737719;188;619140;-62
2022/07/30 06:49:48;;;;;;;26.97;22.53;;;;;;;;;;736451;188;627168;-63
2022/07/30 06:52:14;;;;;;;28.70;21.60;;;;;;;;;;738800;188;648594;-60
2022/07/30 06:54:40;;;;;;;22.23;20.00;;;;;;;;;;739065;187;637425;-62
2022/07/30 06:57:06;;;;;;;24.77;21.53;;;;;;;;;;737802;188;627083;-60
2022/07/30 06:59:32;;;;;;;21.50;16.83;;;;;;;;;;741873;188;626241;-60
2022/07/30 07:01:57;;;;;;;26.63;16.33;;;;;;;;;;734677;189;636857;-63
2022/07/30 07:04:23;;;;;;;21.00;17.00;;;;;;;;;;735075;188;622076;-61
2022/07/30 07:06:49;;;;;;;17.50;15.70;;;;;;;;;;740783;187;626916;-59
2022/07/30 07:09:15;;;;;;;20.43;16.77;;;;;;;;;;735041;188;635659;-63
2022/07/30 07:11:41;;;;;;;21.13;17.17;;;;;;;;;;740279;188;633834;-60
2022/07/30 07:14:07;;;;;;;22.63;17.60;;;;;;;;;;735998;188;631655;-61
2022/07/30 07:16:33;;;;;;;22.70;19.00;;;;;;;;;;747234;188;619530;-61
2022/07/30 07:18:58;;;;;;;25.73;19.50;;;;;;;;;;737477;187;908939;-63
2022/07/30 07:21:24;;;;;;;21.80;19.10;;;;;;;;;;735376;188;903624;-64
2022/07/30 07:23:50;;;;;;;21.83;18.87;;;;;;;;;;739499;188;916086;-63
2022/07/30 07:26:16;;;;;;;22.73;20.23;;;;;;;;;;732729;189;917349;-61
2022/07/30 07:28:42;;;;;;;25.60;19.83;;;;;;;;;;733278;190;927043;-62
2022/07/30 07:31:08;;;;;;;28.43;21.20;;;;;;;;;;741968;187;817974;-63
2022/07/30 07:33:34;;;;;;;25.67;19.90;;;;;;;;;;735053;188;919163;-63
2022/07/30 07:36:00;;;;;;;30.97;25.40;;;;;;;;;;735981;188;918458;-61
2022/07/30 07:38:26;;;;;;;35.77;25.77;;;;;;;;;;734092;188;919302;-61
2022/07/30 07:40:52;;;;;;;34.97;27.73;;;;;;;;;;737569;188;912687;-63
2022/07/30 07:43:17;;;;;;;36.10;29.20;;;;;;;;;;731670;189;917291;-63
2022/07/30 07:45:44;;;;;;;39.03;32.07;;;;;;;;;;735151;188;918370;-63
2022/07/30 07:48:09;;;;;;;40.57;29.80;;;;;;;;;;739734;189;922664;-61
2022/07/30 07:50:35;;;;;;;45.47;35.53;;;;;;;;;;736887;188;920058;-63
2022/07/30 07:53:01;;;;;;;42.87;36.17;;;;;;;;;;738238;188;921836;-64
2022/07/30 07:55:27;;;;;;;46.43;37.97;;;;;;;;;;740861;188;920403;-63
2022/07/30 07:57:53;;;;;;;42.00;34.20;;;;;;;;;;734116;188;817470;-61
2022/07/30 08:00:18;;;;;;;38.90;33.27;;;;;;;;;;736656;188;919155;-61
2022/07/30 08:02:45;;;;;;;43.75;35.20;;;;;;;;;;736068;189;852942;-63
2022/07/30 08:05:11;;;;;;;41.83;34.83;;;;;;;;;;724339;190;918903;-61
2022/07/30 08:07:37;;;;;;;50.30;39.60;;;;;;;;;;706428;196;916591;-62
2022/07/30 08:10:03;;;;;;;44.60;38.53;;;;;;;;;;717383;191;962072;-61
2022/07/30 08:12:29;;;;;;;43.27;36.13;;;;;;;;;;739675;188;817014;-61
2022/07/30 08:14:54;;;;;;;32.90;28.97;;;;;;;;;;734032;188;815639;-61
2022/07/30 08:17:21;;;;;;;37.57;29.47;;;;;;;;;;734361;189;916326;-61
2022/07/30 08:19:47;;;;;;;33.80;28.80;;;;;;;;;;743716;189;632041;-61
2022/07/30 08:22:13;;;;;;;41.27;32.17;;;;;;;;;;736758;188;911598;-62
2022/07/30 08:24:39;;;;;;;38.47;31.07;;;;;;;;;;734661;188;917792;-64
2022/07/30 08:27:04;;;;;;;31.57;26.00;;;;;;;;;;735860;188;915876;-63
2022/07/30 08:29:30;;;;;;;25.60;22.30;;;;;;;;;;731268;188;920591;-65
2022/07/30 08:31:56;;;;;;;25.03;20.80;;;;;;;;;;730327;189;919689;-60
2022/07/30 08:34:22;;;;;;;26.00;22.80;;;;;;;;;;736023;188;922730;-63
2022/07/30 08:36:48;;;;;;;29.43;22.47;;;;;;;;;;741615;189;817987;-60
2022/07/30 08:39:14;;;;;;;28.87;22.57;;;;;;;;;;730282;188;817607;-64
2022/07/30 08:41:39;;;;;;;26.73;21.13;;;;;;;;;;731275;187;919329;-63
2022/07/30 08:44:05;;;;;;;30.50;24.20;;;;;;;;;;739420;187;918017;-60
2022/07/30 08:46:31;;;;;;;27.40;23.27;;;;;;;;;;736685;189;817332;-61
2022/07/30 08:48:57;;;;;;;22.57;19.53;;;;;;;;;;738091;188;818140;-63
2022/07/30 08:51:23;;;;;;;22.70;17.77;;;;;;;;;;739029;188;919153;-61
2022/07/30 08:53:49;;;;;;;21.30;17.13;;;;;;;;;;734406;188;918265;-64
2022/07/30 08:56:15;;;;;;;22.40;17.30;;;;;;;;;;734990;189;911166;-63
2022/07/30 08:58:40;;;;;;;23.97;20.17;;;;;;;;;;727738;188;919457;-60
2022/07/30 09:01:08;;;;;;;19.93;16.67;;;;;;;;;;735728;189;920784;-63
2022/07/30 09:03:33;;;;;;;17.30;15.13;;;;;;;;;;734431;189;921965;-64
2022/07/30 09:05:59;;;;;;;19.08;15.35;;;;;;;;;;729311;188;922523;-61
2022/07/30 09:08:25;;;;;;;18.40;14.43;;;;;;;;;;736953;188;816951;-64
2022/07/30 09:10:51;;;;;;;15.67;13.90;;;;;;;;;;732938;188;923311;-60
2022/07/30 09:13:23;;;;;;;16.10;11.90;;;;;;;;;;734751;188;918303;-63
2022/07/30 09:15:49;;;;;;;12.97;10.70;;;;;;;;;;732915;188;919321;-64
2022/07/30 09:18:14;;;;;;;12.57;10.67;;;;;;;;;;736061;188;918961;-64
2022/07/30 09:20:40;;;;;;;13.07;10.97;;;;;;;;;;735866;188;821016;-60
2022/07/30 09:23:06;;;;;;;12.18;10.27;;;;;;;;;;732323;189;919809;-64
2022/07/30 09:25:34;;;;;;;19.00;12.93;;;;;;;;;;736180;188;921099;-59
2022/07/30 09:27:59;;;;;;;18.50;13.63;;;;;;;;;;727786;189;936789;-62
2022/07/30 09:30:25;;;;;;;16.73;15.03;;;;;;;;;;730979;189;916405;-63
2022/07/30 09:32:52;;;;;;;23.10;17.30;;;;;;;;;;742872;187;919410;-65
2022/07/30 09:35:18;;;;;;;19.57;17.23;;;;;;;;;;733833;188;920442;-64
2022/07/30 09:37:44;;;;;;;17.80;15.90;;;;;;;;;;736717;188;918923;-61
2022/07/30 09:40:10;;;;;;;19.87;17.90;;;;;;;;;;733539;190;919355;-64
2022/07/30 09:42:37;;;;;;;20.50;18.23;;;;;;;;;;736886;189;813797;-64
2022/07/30 09:45:06;;;;;;;23.80;20.30;;;;;;;;;;732509;189;919347;-66
2022/07/30 09:47:32;;;;;;;21.50;18.90;;;;;;;;;;735266;188;913478;-65
2022/07/30 09:50:03;;;;;;;23.50;20.00;;;;;;;;;;742024;188;818266;-64
2022/07/30 09:52:29;;;;;;;24.43;19.40;;;;;;;;;;737807;188;918169;-64
2022/07/30 09:54:55;;;;;;;22.60;20.30;;;;;;;;;;732975;188;919089;-64
2022/07/30 09:57:21;;;;;;;27.10;19.97;;;;;;;;;;736767;188;816037;-64
2022/07/30 09:59:47;;;;;;;18.90;16.90;;;;;;;;;;737720;188;918892;-61
2022/07/30 10:02:13;;;;;;;19.57;17.47;;;;;;;;;;732722;188;918431;-63
2022/07/30 10:04:38;;;;;;;19.23;17.33;;;;;;;;;;731158;188;846988;-60
2022/07/30 10:07:04;;;;;;;20.07;17.63;;;;;;;;;;737172;187;919351;-60
2022/07/30 10:09:30;;;;;;;17.10;15.40;;;;;;;;;;738371;188;918549;-62
2022/07/30 10:11:56;;;;;;;18.73;16.77;;;;;;;;;;733619;188;914048;-62
2022/07/30 10:14:22;;;;;;;18.62;16.55;;;;;;;;;;738385;189;919142;-62
2022/07/30 10:16:48;;;;;;;20.23;15.80;;;;;;;;;;741399;189;916731;-62
2022/07/30 10:19:14;;;;;;;14.93;13.43;;;;;;;;;;735309;188;914822;-61
2022/07/30 10:21:40;;;;;;;11.97;10.70;;;;;;;;;;734574;187;917430;-59
2022/07/30 10:24:06;;;;;;;12.97;11.67;;;;;;;;;;737950;188;914835;-60
2022/07/30 10:26:33;;;;;;;12.53;11.23;;;;;;;;;;731024;190;918721;-59
2022/07/30 10:28:58;;;;;;;10.30;9.23;;;;;;;;;;729477;188;921447;-62
2022/07/30 10:31:24;;;;;;;10.43;9.33;;;;;;;;;;738572;188;919787;-59
2022/07/30 10:33:50;;;;;;;9.30;8.40;;;;;;;;;;735023;187;918112;-59
2022/07/30 10:36:16;;;;;;;9.80;8.03;;;;;;;;;;732694;188;918720;-61
2022/07/30 10:38:42;;;;;;;10.57;9.57;;;;;;;;;;736877;188;914318;-58
2022/07/30 10:41:13;;;;;;;11.43;10.33;;;;;;;;;;735134;189;920348;-59
2022/07/30 10:43:57;;;;;;;10.63;9.53;;;;;;;;;;734952;188;919317;-59
2022/07/30 10:46:26;;;;;;;11.67;10.47;;;;;;;;;;735578;188;917716;-60
2022/07/30 10:48:54;;;;;;;11.73;10.37;;;;;;;;;;731990;188;917578;-59
2022/07/30 10:51:17;;;;;;;10.73;9.63;;;;;;;;;;738021;188;815967;-64
2022/07/30 10:53:47;;;;;;;9.97;8.83;;;;;;;;;;731791;190;937374;-60
2022/07/30 10:56:21;;;;;;;12.80;11.50;;;;;;;;;;740026;188;714167;-61
2022/07/30 10:58:52;;;;;;;9.43;8.43;;;;;;;;;;739881;188;827529;-60
2022/07/30 11:01:18;;;;;;;10.80;9.10;;;;;;;;;;738156;188;816276;-59
2022/07/30 11:03:44;;;;;;;11.37;10.27;;;;;;;;;;740870;190;848319;-59
2022/07/30 11:06:27;;;;;;;14.33;9.97;;;;;;;;;;738125;188;817906;-59
2022/07/30 11:08:52;;;;;;;10.73;9.63;;;;;;;;;;735056;187;944410;-59
2022/07/30 11:11:35;;;;;;;12.10;10.90;;;;;;;;;;736644;188;853921;-61
2022/07/30 11:14:01;;;;;;;10.87;9.77;;;;;;;;;;735538;189;918611;-61
2022/07/30 11:16:47;;;;;;;14.00;12.63;;;;;;;;;;741712;188;790976;-57
2022/07/30 11:19:15;;;;;;;12.90;11.70;;;;;;;;;;738286;188;920760;-60
2022/07/30 11:21:38;;;;;;;14.80;13.30;;;;;;;;;;733035;188;915504;-58
2022/07/30 11:24:03;;;;;;;15.33;13.83;;;;;;;;;;732417;188;921677;-59
2022/07/30 11:26:35;;;;;;;15.80;14.27;;;;;;;;;;735154;188;817543;-60
2022/07/30 11:29:01;;;;;;;13.27;11.87;;;;;;;;;;736018;188;918276;-61
2022/07/30 11:31:30;;;;;;;11.97;10.90;;;;;;;;;;730640;188;919734;-58
2022/07/30 11:34:01;;;;;;;12.00;10.80;;;;;;;;;;735748;188;918375;-59
2022/07/30 11:36:28;;;;;;;11.57;10.47;;;;;;;;;;729740;188;816785;-58
2022/07/30 11:38:53;;;;;;;11.40;10.30;;;;;;;;;;740401;188;816771;-59
2022/07/30 11:41:19;;;;;;;11.20;10.10;;;;;;;;;;734970;188;818408;-57
2022/07/30 11:43:45;;;;;;;10.97;9.97;;;;;;;;;;733716;188;847369;-58
2022/07/30 11:46:12;;;;;;;11.33;10.23;;;;;;;;;;736548;190;930757;-59
2022/07/30 11:48:37;;;;;;;10.53;9.43;;;;;;;;;;735592;188;800191;-58
2022/07/30 11:51:03;;;;;;;10.70;9.00;;;;;;;;;;737305;188;920695;-58
2022/07/30 11:53:29;;;;;;;12.13;10.93;;;;;;;;;;736206;188;919264;-58
2022/07/30 11:55:55;;;;;;;10.93;9.83;;;;;;;;;;731173;188;919867;-58
2022/07/30 11:58:25;;;;;;;11.00;9.90;;;;;;;;;;729786;188;917677;-58
2022/07/30 12:00:51;;;;;;;10.53;9.30;;;;;;;;;;729095;187;919337;-59
2022/07/30 12:03:16;;;;;;;10.90;9.80;;;;;;;;;;738633;190;818039;-58
2022/07/30 12:05:42;;;;;;;10.33;9.00;;;;;;;;;;734601;190;919564;-59
2022/07/30 12:08:08;;;;;;;10.30;9.30;;;;;;;;;;736585;188;912410;-58
2022/07/30 12:10:35;;;;;;;8.93;8.07;;;;;;;;;;740637;188;919996;-58
2022/07/30 12:13:06;;;;;;;7.85;6.93;;;;;;;;;;733122;188;922933;-59
2022/07/30 12:15:32;;;;;;;7.27;6.57;;;;;;;;;;733584;188;921740;-56
2022/07/30 12:17:59;;;;;;;7.10;6.37;;;;;;;;;;735038;188;840415;-59
2022/07/30 12:20:23;;;;;;;7.50;6.07;;;;;;;;;;739799;189;919676;-60
2022/07/30 12:22:49;;;;;;;7.00;6.30;;;;;;;;;;736507;188;901370;-58
2022/07/30 12:25:15;;;;;;;8.30;6.70;;;;;;;;;;736092;189;919408;-58
2022/07/30 12:27:41;;;;;;;12.10;7.37;;;;;;;;;;737852;188;915473;-59
2022/07/30 12:30:08;;;;;;;8.53;7.40;;;;;;;;;;737965;189;919421;-59
2022/07/30 12:32:34;;;;;;;8.40;7.60;;;;;;;;;;736799;188;919316;-59
2022/07/30 12:35:01;;;;;;;9.10;7.75;;;;;;;;;;742220;189;816517;-58
2022/07/30 12:37:27;;;;;;;7.77;6.50;;;;;;;;;;744098;189;816882;-59
2022/07/30 12:39:59;;;;;;;8.47;6.43;;;;;;;;;;737945;188;916599;-59
2022/07/30 12:42:25;;;;;;;7.80;6.13;;;;;;;;;;735559;188;915858;-58
2022/07/30 12:44:50;;;;;;;8.83;7.10;;;;;;;;;;743661;189;921845;-58
2022/07/30 12:47:20;;;;;;;8.00;7.20;;;;;;;;;;733459;188;920847;-58
2022/07/30 12:49:45;;;;;;;7.60;6.83;;;;;;;;;;732373;188;946178;-60
2022/07/30 12:52:11;;;;;;;8.90;7.40;;;;;;;;;;733366;188;921239;-58
2022/07/30 12:54:37;;;;;;;8.73;7.23;;;;;;;;;;737082;190;918607;-59
2022/07/30 12:57:03;;;;;;;9.23;7.33;;;;;;;;;;740513;188;919024;-60
2022/07/30 12:59:29;;;;;;;10.97;8.27;;;;;;;;;;731838;189;816735;-61
2022/07/30 13:01:56;;;;;;;12.40;7.53;;;;;;;;;;736729;188;818476;-59
2022/07/30 13:04:20;;;;;;;8.13;7.30;;;;;;;;;;736168;189;819901;-57
2022/07/30 13:06:52;;;;;;;8.52;7.65;;;;;;;;;;733893;188;918147;-58
2022/07/30 13:09:18;;;;;;;8.17;7.37;;;;;;;;;;733028;188;943592;-59
2022/07/30 13:11:43;;;;;;;8.70;7.80;;;;;;;;;;734970;188;816585;-58
2022/07/30 13:14:11;;;;;;;9.40;6.70;;;;;;;;;;730738;188;909835;-59
2022/07/30 13:16:35;;;;;;;8.77;7.37;;;;;;;;;;728693;188;918440;-58
2022/07/30 13:19:02;;;;;;;9.33;7.53;;;;;;;;;;737148;188;920538;-57
2022/07/30 13:21:28;;;;;;;9.40;8.50;;;;;;;;;;740579;188;918304;-58
2022/07/30 13:23:53;;;;;;;8.27;7.57;;;;;;;;;;734182;190;920041;-59
2022/07/30 13:26:19;;;;;;;8.00;7.17;;;;;;;;;;738339;189;914554;-58
2022/07/30 13:28:45;;;;;;;7.90;7.10;;;;;;;;;;736457;188;919407;-58
2022/07/30 13:31:11;;;;;;;7.23;6.53;;;;;;;;;;740462;188;914731;-57
2022/07/30 13:33:37;;;;;;;8.20;7.40;;;;;;;;;;733953;188;918529;-58
2022/07/30 13:36:03;;;;;;;8.17;7.10;;;;;;;;;;740076;190;914557;-59
2022/07/30 13:38:29;;;;;;;7.93;7.17;;;;;;;;;;735815;189;919540;-59
2022/07/30 13:40:54;;;;;;;10.20;7.60;;;;;;;;;;732956;188;822583;-59
2022/07/30 13:43:20;;;;;;;7.33;6.63;;;;;;;;;;740090;187;919302;-57
2022/07/30 13:45:46;;;;;;;8.67;7.80;;;;;;;;;;738994;188;819467;-59
2022/07/30 13:48:12;;;;;;;9.63;8.70;;;;;;;;;;732879;189;919187;-59
2022/07/30 13:50:38;;;;;;;9.03;8.13;;;;;;;;;;735688;189;918624;-57
2022/07/30 13:53:04;;;;;;;9.02;8.15;;;;;;;;;;735267;187;918344;-57
2022/07/30 13:55:29;;;;;;;12.33;9.53;;;;;;;;;;732850;188;919950;-59
2022/07/30 13:57:55;;;;;;;9.67;8.77;;;;;;;;;;738146;188;919690;-57
2022/07/30 14:00:21;;;;;;;8.30;7.50;;;;;;;;;;730675;188;919929;-57
2022/07/30 14:02:47;;;;;;;7.47;6.70;;;;;;;;;;731618;188;916091;-57
2022/07/30 14:05:13;;;;;;;6.80;5.60;;;;;;;;;;728538;188;816700;-60
2022/07/30 14:07:39;;;;;;;6.20;5.60;;;;;;;;;;740813;189;918578;-57